Time;durP1;ratioP1;P1;durP2;ratioP2;P2;SDS_P1;SDS_P2;PMS_P1;PMS_P2;Temp;Humidity;BMP_temperature;BMP_pressure;BME280_temperature;BME280_humidity;BME280_pressure;Samples;Min_cycle;Max_cycle;Signal;HPM_P1;HPM_P2
2022/10/25 00:01:23;;;;;;;;;;;;;;;18.11;100.00;98655.66;5039503;28;19917;-46
2022/10/25 00:03:48;;;;;;;;;;;;;;;17.92;100.00;98662.13;5040833;28;19920;-47
2022/10/25 00:06:14;;;;;;;;;;;;;;;17.56;100.00;98671.47;5037513;28;19924;-46
2022/10/25 00:08:39;;;;;;;;;;;;;;;17.75;100.00;98670.22;5038071;28;19921;-46
2022/10/25 00:11:05;;;;;;;;;;;;;;;17.97;100.00;98673.09;5038945;28;20278;-46
2022/10/25 00:13:31;;;;;;;;;;;;;;;18.27;100.00;98656.31;5038800;28;19921;-46
2022/10/25 00:15:56;;;;;;;;;;;;;;;18.42;100.00;98653.56;5040098;28;20378;-46
2022/10/25 00:18:21;;;;;;;;;;;;;;;18.18;100.00;98651.72;5037921;28;19921;-46
2022/10/25 00:20:46;;;;;;;;;;;;;;;18.30;100.00;98661.28;5039640;28;19976;-45
2022/10/25 00:23:12;;;;;;;;;;;;;;;18.29;100.00;98649.22;5040734;28;19920;-46
2022/10/25 00:25:37;;;;;;;;;;;;;;;18.59;100.00;98655.84;5040440;28;20397;-46
2022/10/25 00:28:02;;;;;;;;;;;;;;;18.53;100.00;98645.81;5037548;28;19921;-46
2022/10/25 00:30:28;;;;;;;;;;;;;;;18.66;100.00;98638.81;5038198;28;20183;-46
2022/10/25 00:32:53;;;;;;;;;;;;;;;18.66;100.00;98638.81;5038674;28;19920;-46
2022/10/25 00:35:18;;;;;;;;;;;;;;;18.35;100.00;98653.97;5038320;28;20015;-47
2022/10/25 00:37:43;;;;;;;;;;;;;;;18.53;100.00;98651.03;5037879;28;19920;-48
2022/10/25 00:40:09;;;;;;;;;;;;;;;18.26;100.00;98653.78;5039225;28;19936;-47
2022/10/25 00:42:34;;;;;;;;;;;;;;;17.84;100.00;98659.22;5054039;28;19920;-47
2022/10/25 00:45:03;;;;;;;;;;;;;;;17.76;100.00;98672.72;5038655;28;19921;-47
2022/10/25 00:47:45;;;;;;;;;;;;;;;17.85;100.00;98675.69;5036014;28;20405;-47
2022/10/25 00:50:22;;;;;;;;;;;;;;;17.75;100.00;98683.25;5038858;28;19931;-47
2022/10/25 00:52:48;;;;;;;;;;;;;;;18.43;100.00;98666.50;5038820;28;21105;-46
2022/10/25 00:55:13;;;;;;;;;;;;;;;18.36;100.00;98666.09;5037981;28;19923;-47
2022/10/25 00:57:46;;;;;;;;;;;;;;;18.06;100.00;98668.19;5037939;28;20331;-48
2022/10/25 01:00:11;;;;;;;;;;;;;;;17.94;100.00;98662.03;5037812;28;19925;-47
2022/10/25 01:02:37;;;;;;;;;;;;;;;17.52;100.00;98683.00;5040543;28;19924;-48
2022/10/25 01:05:02;;;;;;;;;;;;;;;17.58;100.00;98693.94;5038834;28;19960;-47
2022/10/25 01:07:27;;;;;;;;;;;;;;;17.66;100.00;98702.94;5039695;28;19917;-47
2022/10/25 01:09:52;;;;;;;;;;;;;;;18.07;100.00;98698.53;5037698;28;19923;-47
2022/10/25 01:12:18;;;;;;;;;;;;;;;17.99;100.00;98699.03;5039495;28;19940;-47
2022/10/25 01:14:43;;;;;;;;;;;;;;;17.85;100.00;98701.72;5038292;28;19958;-47
2022/10/25 01:17:21;;;;;;;;;;;;;;;17.51;100.00;98704.75;5038196;28;19963;-47
2022/10/25 01:19:46;;;;;;;;;;;;;;;17.77;100.00;98704.84;5037555;28;19928;-47
2022/10/25 01:22:32;;;;;;;;;;;;;;;17.96;100.00;98699.25;5039549;28;20294;-47
2022/10/25 01:24:58;;;;;;;;;;;;;;;17.67;100.00;98694.16;5039144;28;19923;-47
2022/10/25 01:27:26;;;;;;;;;;;;;;;18.05;100.00;98693.41;5037232;28;20147;-47
2022/10/25 01:29:51;;;;;;;;;;;;;;;18.07;100.00;98701.13;5038728;28;19999;-47
2022/10/25 01:32:21;;;;;;;;;;;;;;;17.61;100.00;98706.75;5035489;28;20980;-47
2022/10/25 01:34:51;;;;;;;;;;;;;;;18.00;100.00;98692.91;5037351;28;20558;-50
2022/10/25 01:37:22;;;;;;;;;;;;;;;17.63;100.00;98704.88;5044586;28;21019;-47
2022/10/25 01:39:50;;;;;;;;;;;;;;;17.78;100.00;98698.66;5035595;28;19927;-47
2022/10/25 01:42:21;;;;;;;;;;;;;;;17.91;100.00;98698.72;5036954;28;19920;-46
2022/10/25 01:44:49;;;;;;;;;;;;;;;18.02;100.00;98691.03;5021469;28;19916;-47
2022/10/25 01:47:16;;;;;;;;;;;;;;;18.00;100.00;98699.88;5036097;28;20452;-47
2022/10/25 01:49:43;;;;;;;;;;;;;;;17.95;100.00;98703.63;5036598;28;19925;-47
2022/10/25 01:52:08;;;;;;;;;;;;;;;17.66;100.00;98712.50;5037033;28;19925;-47
2022/10/25 01:54:34;;;;;;;;;;;;;;;17.69;100.00;98712.31;5036213;28;19923;-46
2022/10/25 01:57:08;;;;;;;;;;;;;;;17.81;100.00;98710.66;5038294;28;19921;-47
2022/10/25 01:59:42;;;;;;;;;;;;;;;17.23;100.00;98712.69;5037372;28;19928;-46
2022/10/25 02:02:19;;;;;;;;;;;;;;;17.50;100.00;98713.50;5036114;28;19943;-48
2022/10/25 02:04:50;;;;;;;;;;;;;;;17.50;100.00;98713.50;5037722;28;19917;-47
2022/10/25 02:07:19;;;;;;;;;;;;;;;17.19;100.00;98721.63;5038337;28;19927;-47
2022/10/25 02:09:52;;;;;;;;;;;;;;;17.79;100.00;98729.00;5036592;28;20295;-47
2022/10/25 02:12:20;;;;;;;;;;;;;;;17.91;100.00;98728.22;5036336;28;19952;-47
2022/10/25 02:15:06;;;;;;;;;;;;;;;17.46;100.00;98730.25;5037601;28;19922;-46
2022/10/25 02:17:31;;;;;;;;;;;;;;;18.05;100.00;98719.47;5037321;28;19921;-47
2022/10/25 02:19:57;;;;;;;;;;;;;;;17.68;100.00;98708.03;5035326;28;20023;-47
2022/10/25 02:22:23;;;;;;;;;;;;;;;16.88;100.00;98727.00;5035009;28;19979;-47
2022/10/25 02:24:49;;;;;;;;;;;;;;;17.72;100.00;98731.19;5038030;28;19959;-46
2022/10/25 02:27:14;;;;;;;;;;;;;;;17.55;100.00;98728.84;5034925;28;19975;-46
2022/10/25 02:29:39;;;;;;;;;;;;;;;17.64;100.00;98730.84;5036792;28;19917;-46
2022/10/25 02:32:05;;;;;;;;;;;;;;;17.81;100.00;98721.06;5036723;28;19921;-47
2022/10/25 02:34:30;;;;;;;;;;;;;;;17.48;100.00;98731.00;5042279;28;19931;-46
2022/10/25 02:36:55;;;;;;;;;;;;;;;17.51;100.00;98727.34;5041316;28;20391;-46
2022/10/25 02:39:21;;;;;;;;;;;;;;;17.48;100.00;98725.78;5040258;28;19925;-48
2022/10/25 02:41:46;;;;;;;;;;;;;;;17.74;100.00;98731.06;5042597;28;19931;-47
2022/10/25 02:44:11;;;;;;;;;;;;;;;17.88;100.00;98717.16;5040706;28;20455;-46
2022/10/25 02:46:37;;;;;;;;;;;;;;;17.76;100.00;98729.19;5039943;28;20401;-46
2022/10/25 02:49:02;;;;;;;;;;;;;;;17.76;100.00;98726.59;5041166;28;20640;-47
2022/10/25 02:51:27;;;;;;;;;;;;;;;17.94;100.00;98722.78;5041902;28;19921;-47
2022/10/25 02:53:52;;;;;;;;;;;;;;;16.99;100.00;98722.88;5041859;28;19913;-46
2022/10/25 02:56:19;;;;;;;;;;;;;;;17.55;100.00;98737.47;5041313;28;19920;-47
2022/10/25 02:58:44;;;;;;;;;;;;;;;18.12;100.00;98740.75;5040440;28;19920;-47
2022/10/25 03:01:10;;;;;;;;;;;;;;;18.09;100.00;98725.31;5038615;28;20356;-47
2022/10/25 03:03:35;;;;;;;;;;;;;;;17.65;100.00;98731.66;5039971;28;19920;-48
2022/10/25 03:06:01;;;;;;;;;;;;;;;17.49;100.00;98757.84;5040036;28;19921;-49
2022/10/25 03:08:26;;;;;;;;;;;;;;;17.05;100.00;98761.53;5040958;28;19932;-48
2022/10/25 03:10:51;;;;;;;;;;;;;;;17.49;100.00;98778.69;5039283;28;19921;-48
2022/10/25 03:13:17;;;;;;;;;;;;;;;17.72;100.00;98769.38;5040718;28;19965;-48
2022/10/25 03:15:42;;;;;;;;;;;;;;;18.12;100.00;98767.63;5041049;28;19967;-48
2022/10/25 03:18:08;;;;;;;;;;;;;;;17.80;100.00;98761.91;5040978;28;19924;-48
2022/10/25 03:20:33;;;;;;;;;;;;;;;17.25;100.00;98757.69;5041236;28;19921;-47
2022/10/25 03:22:58;;;;;;;;;;;;;;;17.32;100.00;98767.59;5039773;28;20553;-48
2022/10/25 03:25:23;;;;;;;;;;;;;;;17.04;100.00;98789.31;5040262;28;19938;-48
2022/10/25 03:27:49;;;;;;;;;;;;;;;17.51;100.00;98785.47;5039633;28;19921;-48
2022/10/25 03:30:14;;;;;;;;;;;;;;;17.75;100.00;98787.44;5041912;28;20323;-47
2022/10/25 03:32:40;;;;;;;;;;;;;;;17.93;100.00;98777.63;5035370;28;20290;-47
2022/10/25 03:35:05;;;;;;;;;;;;;;;17.42;100.00;98777.41;5041725;28;19921;-48
2022/10/25 03:37:30;;;;;;;;;;;;;;;17.80;100.00;98780.16;5039004;28;19921;-48
2022/10/25 03:39:56;;;;;;;;;;;;;;;16.43;100.00;98780.81;5040862;28;19924;-48
2022/10/25 03:42:21;;;;;;;;;;;;;;;17.61;100.00;98787.47;5038280;28;19947;-49
2022/10/25 03:44:46;;;;;;;;;;;;;;;17.36;100.00;98783.84;5042286;28;19917;-48
2022/10/25 03:47:11;;;;;;;;;;;;;;;18.04;100.00;98779.50;5038078;28;19917;-47
2022/10/25 03:49:37;;;;;;;;;;;;;;;17.68;100.00;98779.19;5040099;28;20019;-48
2022/10/25 03:52:04;;;;;;;;;;;;;;;17.66;100.00;98786.25;5039748;28;19960;-48
2022/10/25 03:54:30;;;;;;;;;;;;;;;17.53;100.00;98786.19;5040188;28;20303;-48
2022/10/25 03:56:55;;;;;;;;;;;;;;;17.74;100.00;98789.22;5041321;28;19921;-48
2022/10/25 03:59:20;;;;;;;;;;;;;;;17.67;100.00;98787.09;5039569;28;20389;-48
2022/10/25 04:01:45;;;;;;;;;;;;;;;17.80;100.00;98787.13;5039859;28;20226;-48
2022/10/25 04:04:11;;;;;;;;;;;;;;;17.42;100.00;98782.63;5040009;28;19916;-50
2022/10/25 04:06:36;;;;;;;;;;;;;;;17.65;100.00;98795.03;5040482;28;19921;-48
2022/10/25 04:09:01;;;;;;;;;;;;;;;17.63;100.00;98794.28;5039366;28;19931;-49
2022/10/25 04:11:26;;;;;;;;;;;;;;;17.81;100.00;98794.88;5040834;28;19925;-48
2022/10/25 04:13:52;;;;;;;;;;;;;;;17.67;100.00;98792.28;5039123;28;20003;-49
2022/10/25 04:16:17;;;;;;;;;;;;;;;17.41;100.00;98797.41;5040642;28;19960;-49
2022/10/25 04:18:42;;;;;;;;;;;;;;;17.47;100.00;98810.03;5038771;28;20390;-48
2022/10/25 04:21:07;;;;;;;;;;;;;;;17.71;100.00;98809.41;5040506;28;19921;-49
2022/10/25 04:23:33;;;;;;;;;;;;;;;18.24;100.00;98801.63;5039923;28;20911;-49
2022/10/25 04:25:58;;;;;;;;;;;;;;;18.56;100.00;98782.03;5037916;28;20289;-48
2022/10/25 04:28:23;;;;;;;;;;;;;;;18.65;100.00;98777.97;5038914;28;20011;-49
2022/10/25 04:30:48;;;;;;;;;;;;;;;18.60;100.00;98774.84;5039149;28;19956;-49
2022/10/25 04:33:14;;;;;;;;;;;;;;;18.50;100.00;98769.44;5038292;28;21678;-48
2022/10/25 04:35:39;;;;;;;;;;;;;;;18.18;100.00;98782.03;5040107;28;19921;-48
2022/10/25 04:38:04;;;;;;;;;;;;;;;17.97;100.00;98790.34;5040050;28;19916;-49
2022/10/25 04:40:29;;;;;;;;;;;;;;;18.10;100.00;98794.75;5040775;28;19970;-48
2022/10/25 04:42:55;;;;;;;;;;;;;;;17.85;100.00;98793.75;5039757;28;20481;-48
2022/10/25 04:45:20;;;;;;;;;;;;;;;17.54;100.00;98798.31;5039319;28;20046;-48
2022/10/25 04:47:45;;;;;;;;;;;;;;;17.48;100.00;98811.72;5040413;28;19995;-48
2022/10/25 04:50:10;;;;;;;;;;;;;;;17.78;100.00;98816.72;5040184;28;19973;-49
2022/10/25 04:52:36;;;;;;;;;;;;;;;17.76;100.00;98815.16;5039638;28;19928;-51
2022/10/25 04:55:01;;;;;;;;;;;;;;;17.84;100.00;98812.91;5039223;28;19916;-48
2022/10/25 04:57:26;;;;;;;;;;;;;;;18.21;100.00;98813.09;5040107;28;19921;-48
2022/10/25 04:59:51;;;;;;;;;;;;;;;18.10;100.00;98807.78;5039705;28;19956;-48
2022/10/25 05:02:17;;;;;;;;;;;;;;;18.15;100.00;98805.69;5040955;28;19948;-49
2022/10/25 05:04:42;;;;;;;;;;;;;;;17.91;100.00;98803.78;5039190;28;19928;-49
2022/10/25 05:07:07;;;;;;;;;;;;;;;18.00;100.00;98804.13;5039392;28;19950;-48
2022/10/25 05:09:32;;;;;;;;;;;;;;;17.71;100.00;98812.00;5039877;28;20374;-49
2022/10/25 05:11:58;;;;;;;;;;;;;;;17.97;100.00;98813.78;5039986;28;20305;-48
2022/10/25 05:14:23;;;;;;;;;;;;;;;17.25;100.00;98813.16;5037659;28;19921;-48
2022/10/25 05:16:48;;;;;;;;;;;;;;;17.55;100.00;98823.41;5037026;28;19920;-48
2022/10/25 05:19:13;;;;;;;;;;;;;;;17.44;100.00;98822.41;5035170;28;19927;-48
2022/10/25 05:21:39;;;;;;;;;;;;;;;17.82;100.00;98825.22;5038759;28;20048;-48
2022/10/25 05:24:04;;;;;;;;;;;;;;;17.70;100.00;98829.41;5040275;28;20007;-48
2022/10/25 05:26:29;;;;;;;;;;;;;;;17.43;100.00;98832.00;5038080;28;20026;-48
2022/10/25 05:28:55;;;;;;;;;;;;;;;17.42;100.00;98835.50;5039047;28;19963;-48
2022/10/25 05:31:22;;;;;;;;;;;;;;;17.12;100.00;98843.47;5039196;28;19912;-48
2022/10/25 05:33:47;;;;;;;;;;;;;;;16.96;100.00;98850.53;5053838;28;20935;-48
2022/10/25 05:36:13;;;;;;;;;;;;;;;17.40;100.00;98863.41;5038520;28;19917;-49
2022/10/25 05:38:38;;;;;;;;;;;;;;;17.08;100.00;98861.03;5038706;28;19920;-47
2022/10/25 05:41:03;;;;;;;;;;;;;;;17.21;100.00;98852.47;5039114;28;19924;-47
2022/10/25 05:43:29;;;;;;;;;;;;;;;17.47;100.00;98859.50;5038510;28;19927;-48
2022/10/25 05:46:20;;;;;;;;;;;;;;;17.40;100.00;98862.56;5038604;28;19917;-48
2022/10/25 05:48:45;;;;;;;;;;;;;;;18.12;100.00;98858.03;5037313;28;19927;-47
2022/10/25 05:51:11;;;;;;;;;;;;;;;17.35;100.00;98855.06;5039354;28;19921;-48
2022/10/25 05:53:36;;;;;;;;;;;;;;;18.15;100.00;98863.88;5039811;28;19927;-49
2022/10/25 05:56:01;;;;;;;;;;;;;;;17.65;100.00;98854.06;5039420;28;20090;-47
2022/10/25 05:58:26;;;;;;;;;;;;;;;17.40;100.00;98878.19;5038436;28;19921;-48
2022/10/25 06:00:52;;;;;;;;;;;;;;;17.40;100.00;98889.44;5038993;28;20259;-48
2022/10/25 06:03:17;;;;;;;;;;;;;;;17.41;100.00;98893.72;5031436;28;19921;-48
2022/10/25 06:05:42;;;;;;;;;;;;;;;17.48;100.00;98892.41;5032945;28;19921;-49
2022/10/25 06:08:07;;;;;;;;;;;;;;;17.87;100.00;98888.25;5038234;28;20019;-48
2022/10/25 06:10:33;;;;;;;;;;;;;;;18.07;100.00;98881.78;5038317;28;20010;-48
2022/10/25 06:12:58;;;;;;;;;;;;;;;17.42;100.00;98887.56;5038930;28;19920;-49
2022/10/25 06:15:23;;;;;;;;;;;;;;;17.63;100.00;98894.97;5037815;28;19921;-49
2022/10/25 06:17:48;;;;;;;;;;;;;;;17.90;100.00;98890.69;5038770;28;20393;-48
2022/10/25 06:20:13;;;;;;;;;;;;;;;17.73;100.00;98898.69;5036814;28;20794;-48
2022/10/25 06:22:39;;;;;;;;;;;;;;;17.46;100.00;98904.69;5038990;28;20392;-48
2022/10/25 06:25:04;;;;;;;;;;;;;;;17.80;100.00;98901.75;5037692;28;19920;-48
2022/10/25 06:27:29;;;;;;;;;;;;;;;17.59;100.00;98903.94;5037302;28;19913;-48
2022/10/25 06:29:55;;;;;;;;;;;;;;;18.14;100.00;98905.69;5035970;28;19924;-48
2022/10/25 06:32:20;;;;;;;;;;;;;;;18.21;100.00;98895.69;5037570;28;19923;-47
2022/10/25 06:34:45;;;;;;;;;;;;;;;18.12;100.00;98886.69;5038842;28;19917;-47
2022/10/25 06:37:10;;;;;;;;;;;;;;;18.37;100.00;98881.53;5038234;28;19916;-48
2022/10/25 06:39:35;;;;;;;;;;;;;;;17.72;100.00;98894.41;5035965;28;19951;-48
2022/10/25 06:42:01;;;;;;;;;;;;;;;18.11;100.00;98900.63;5037119;28;19955;-47
2022/10/25 06:44:26;;;;;;;;;;;;;;;18.08;100.00;98895.63;5037802;28;19936;-48
2022/10/25 06:46:51;;;;;;;;;;;;;;;17.98;100.00;98901.44;5037831;28;19917;-48
2022/10/25 06:49:16;;;;;;;;;;;;;;;17.81;100.00;98898.19;5037794;28;19927;-47
2022/10/25 06:51:42;;;;;;;;;;;;;;;18.08;100.00;98895.63;5036209;28;20008;-47
2022/10/25 06:54:08;;;;;;;;;;;;;;;18.09;100.00;98912.97;5037016;28;19952;-48
2022/10/25 06:56:34;;;;;;;;;;;;;;;17.48;100.00;98917.63;5038132;28;19917;-48
2022/10/25 06:58:59;;;;;;;;;;;;;;;17.78;100.00;98936.53;5037245;28;19916;-50
2022/10/25 07:01:24;;;;;;;;;;;;;;;17.11;100.00;98940.69;5038338;28;19921;-48
2022/10/25 07:03:52;;;;;;;;;;;;;;;16.87;100.00;98949.00;5036070;28;19955;-49
2022/10/25 07:06:18;;;;;;;;;;;;;;;17.41;100.00;98966.63;5033812;28;19925;-48
2022/10/25 07:08:44;;;;;;;;;;;;;;;17.42;100.00;98970.88;5037995;28;19931;-49
2022/10/25 07:11:13;;;;;;;;;;;;;;;17.22;100.00;98973.84;5038485;28;20023;-51
2022/10/25 07:13:39;;;;;;;;;;;;;;;17.84;100.00;98981.41;5036762;28;20300;-51
2022/10/25 07:16:05;;;;;;;;;;;;;;;17.62;100.00;98972.28;5037746;28;19927;-49
2022/10/25 07:18:31;;;;;;;;;;;;;;;17.84;100.00;98977.03;5041530;28;19916;-48
2022/10/25 07:21:00;;;;;;;;;;;;;;;17.29;100.00;98975.19;5042449;28;20360;-49
2022/10/25 07:23:26;;;;;;;;;;;;;;;17.25;100.00;98986.69;5041450;28;19979;-48
2022/10/25 07:25:51;;;;;;;;;;;;;;;17.46;100.00;98998.41;5040759;28;20372;-50
2022/10/25 07:28:16;;;;;;;;;;;;;;;17.45;100.00;99004.56;5040767;28;19928;-50
2022/10/25 07:30:45;;;;;;;;;;;;;;;17.72;100.00;98998.59;5041467;28;20503;-47
2022/10/25 07:33:11;;;;;;;;;;;;;;;17.78;100.00;98995.63;5038793;28;20435;-48
2022/10/25 07:35:36;;;;;;;;;;;;;;;17.46;100.00;98994.97;5041733;28;19924;-47
2022/10/25 07:38:01;;;;;;;;;;;;;;;17.80;100.00;98998.97;5042128;28;20083;-48
2022/10/25 07:40:26;;;;;;;;;;;;;;;17.44;100.00;98999.44;5040994;28;19932;-49
2022/10/25 07:42:51;;;;;;;;;;;;;;;17.83;100.00;98988.38;5056150;28;19917;-48
2022/10/25 07:45:17;;;;;;;;;;;;;;;18.30;100.00;98974.13;5041602;28;19917;-47
2022/10/25 07:47:42;;;;;;;;;;;;;;;17.95;100.00;98963.34;5055296;28;19925;-47
2022/10/25 07:50:07;;;;;;;;;;;;;;;18.14;100.00;98968.22;5041387;28;19970;-47
2022/10/25 07:52:33;;;;;;;;;;;;;;;17.97;100.00;98977.94;5041527;28;20011;-49
2022/10/25 07:54:58;;;;;;;;;;;;;;;17.82;100.00;98994.53;5040462;28;19999;-49
2022/10/25 07:57:23;;;;;;;;;;;;;;;17.77;100.00;98997.38;5041655;28;19920;-48
2022/10/25 07:59:48;;;;;;;;;;;;;;;18.02;100.00;98993.31;5039800;28;19917;-48
2022/10/25 08:02:13;;;;;;;;;;;;;;;18.03;100.00;98992.34;5040595;28;19928;-48
2022/10/25 08:04:39;;;;;;;;;;;;;;;18.47;100.00;98985.22;5039694;28;19917;-48
2022/10/25 08:07:04;;;;;;;;;;;;;;;17.78;100.00;98990.41;5041184;28;19916;-47
2022/10/25 08:09:29;;;;;;;;;;;;;;;18.64;100.00;99003.25;5040359;28;19920;-48
2022/10/25 08:11:54;;;;;;;;;;;;;;;18.35;100.00;98987.69;5039860;28;19916;-48
2022/10/25 08:14:19;;;;;;;;;;;;;;;17.95;100.00;99005.88;5040911;28;20966;-48
2022/10/25 08:16:45;;;;;;;;;;;;;;;17.90;100.00;99005.31;5040976;28;19940;-47
2022/10/25 08:19:10;;;;;;;;;;;;;;;17.68;100.00;99010.16;5041115;28;19925;-48
2022/10/25 08:21:35;;;;;;;;;;;;;;;17.75;100.00;99019.25;5038626;28;19971;-48
2022/10/25 08:24:00;;;;;;;;;;;;;;;18.11;100.00;99020.53;5039480;28;19927;-48
2022/10/25 08:26:27;;;;;;;;;;;;;;;18.57;100.00;99007.19;5039399;28;19928;-49
2022/10/25 08:28:52;;;;;;;;;;;;;;;18.33;100.00;98993.94;5039218;28;19959;-50
2022/10/25 08:31:18;;;;;;;;;;;;;;;18.53;100.00;98993.50;5039857;28;19957;-50
2022/10/25 08:33:43;;;;;;;;;;;;;;;18.63;100.00;98995.50;5038815;28;19923;-47
2022/10/25 08:36:08;;;;;;;;;;;;;;;18.49;100.00;98980.75;5039525;28;19963;-48
2022/10/25 08:38:33;;;;;;;;;;;;;;;17.85;100.00;98996.94;5039720;28;19917;-47
2022/10/25 08:41:02;;;;;;;;;;;;;;;18.32;100.00;98995.72;5038850;28;19979;-47
2022/10/25 08:43:33;;;;;;;;;;;;;;;18.25;100.00;98999.66;5037624;28;19920;-50
2022/10/25 08:45:58;;;;;;;;;;;;;;;18.69;100.00;98993.34;5039019;28;19917;-48
2022/10/25 08:48:32;;;;;;;;;;;;;;;17.69;100.00;98991.81;5040287;28;19935;-47
2022/10/25 08:50:59;;;;;;;;;;;;;;;18.78;100.00;98989.31;5039684;28;19964;-47
2022/10/25 08:53:27;;;;;;;;;;;;;;;18.45;100.00;98981.88;5038523;28;19931;-47
2022/10/25 08:55:52;;;;;;;;;;;;;;;18.71;100.00;98986.25;5038697;28;20474;-48
2022/10/25 08:58:20;;;;;;;;;;;;;;;18.68;100.00;98989.06;5039749;28;19916;-47
2022/10/25 09:00:45;;;;;;;;;;;;;;;19.04;100.00;98984.97;5039979;28;19917;-48
2022/10/25 09:03:24;;;;;;;;;;;;;;;18.76;100.00;98991.16;5039766;28;19921;-48
2022/10/25 09:06:08;;;;;;;;;;;;;;;19.90;100.00;98973.84;5039603;28;19924;-48
2022/10/25 09:08:52;;;;;;;;;;;;;;;19.37;100.00;98975.81;5039231;28;19948;-48
2022/10/25 09:11:26;;;;;;;;;;;;;;;19.22;100.00;98986.31;5040894;28;19921;-49
2022/10/25 09:13:51;;;;;;;;;;;;;;;19.72;100.00;98980.38;5038818;28;19927;-47
2022/10/25 09:16:27;;;;;;;;;;;;;;;18.89;100.00;98986.00;5040528;28;19920;-47
2022/10/25 09:18:53;;;;;;;;;;;;;;;18.17;100.00;98994.91;5038058;28;20027;-47
2022/10/25 09:21:19;;;;;;;;;;;;;;;17.94;100.00;99004.19;5039803;28;19921;-47
2022/10/25 09:23:47;;;;;;;;;;;;;;;18.23;100.00;99009.34;5040329;28;19923;-48
2022/10/25 09:26:19;;;;;;;;;;;;;;;18.54;100.00;99013.44;5038145;28;20019;-47
2022/10/25 09:28:51;;;;;;;;;;;;;;;18.25;100.00;99006.66;5040154;28;20365;-48
2022/10/25 09:31:21;;;;;;;;;;;;;;;18.34;100.00;99013.88;5039709;28;20077;-47
2022/10/25 09:33:47;;;;;;;;;;;;;;;18.23;100.00;99024.16;5040020;28;19924;-47
2022/10/25 09:36:12;;;;;;;;;;;;;;;19.14;100.00;99025.19;5038512;28;19919;-46
2022/10/25 09:38:48;;;;;;;;;;;;;;;18.56;100.00;99021.16;5038990;28;20000;-48
2022/10/25 09:41:18;;;;;;;;;;;;;;;18.61;100.00;99021.72;5037663;28;19921;-49
2022/10/25 09:43:47;;;;;;;;;;;;;;;19.23;100.00;99016.75;5037129;28;20639;-50
2022/10/25 09:46:13;;;;;;;;;;;;;;;19.06;100.00;99009.19;5036842;28;20361;-48
2022/10/25 09:48:42;;;;;;;;;;;;;;;19.56;100.00;99002.31;5037439;28;20519;-48
2022/10/25 09:51:18;;;;;;;;;;;;;;;18.81;100.00;99005.59;5037772;28;19917;-47
2022/10/25 09:53:43;;;;;;;;;;;;;;;19.36;100.00;98997.63;5037510;28;19917;-48
2022/10/25 09:56:08;;;;;;;;;;;;;;;18.62;100.00;99004.28;5040058;28;20427;-49
2022/10/25 09:58:36;;;;;;;;;;;;;;;19.55;100.00;99005.03;5037112;28;19920;-48
2022/10/25 10:01:13;;;;;;;;;;;;;;;18.82;100.00;99006.47;5036912;28;19955;-47
2022/10/25 10:03:40;;;;;;;;;;;;;;;19.46;100.00;99001.28;5039483;28;20495;-47
2022/10/25 10:06:11;;;;;;;;;;;;;;;19.59;100.00;98996.91;5039731;28;19984;-47
2022/10/25 10:08:46;;;;;;;;;;;;;;;20.01;100.00;98992.22;5041631;28;19928;-47
2022/10/25 10:11:13;;;;;;;;;;;;;;;20.17;100.00;98988.53;5038536;28;19995;-47
2022/10/25 10:13:39;;;;;;;;;;;;;;;20.22;100.00;98987.25;5036927;28;20013;-47
2022/10/25 10:16:17;;;;;;;;;;;;;;;19.52;100.00;98995.63;5037848;28;19920;-47
2022/10/25 10:18:43;;;;;;;;;;;;;;;20.31;100.00;98992.75;5020928;28;20511;-47
2022/10/25 10:21:12;;;;;;;;;;;;;;;20.44;100.00;98989.13;5038208;28;19925;-46
2022/10/25 10:23:40;;;;;;;;;;;;;;;19.40;100.00;98991.25;5037993;28;19925;-46
2022/10/25 10:26:11;;;;;;;;;;;;;;;20.29;100.00;98982.41;5038437;28;20020;-47
2022/10/25 10:28:36;;;;;;;;;;;;;;;19.77;100.00;98999.19;5037370;28;19917;-46
2022/10/25 10:31:02;;;;;;;;;;;;;;;19.67;100.00;99003.34;5037787;28;19979;-47
2022/10/25 10:33:29;;;;;;;;;;;;;;;19.81;100.00;99011.91;5037464;28;19921;-46
2022/10/25 10:35:54;;;;;;;;;;;;;;;20.25;100.00;99004.47;5038789;28;19960;-47
2022/10/25 10:38:23;;;;;;;;;;;;;;;19.52;100.00;99016.50;5037297;28;19916;-46
2022/10/25 10:40:53;;;;;;;;;;;;;;;19.12;100.00;99026.25;5038370;28;19921;-47
2022/10/25 10:43:31;;;;;;;;;;;;;;;20.08;100.00;99013.53;5037362;28;19948;-46
2022/10/25 10:46:03;;;;;;;;;;;;;;;19.98;100.00;99012.50;5038577;28;19924;-47
2022/10/25 10:48:32;;;;;;;;;;;;;;;20.28;100.00;99006.91;5037319;28;19923;-47
2022/10/25 10:50:58;;;;;;;;;;;;;;;20.38;100.00;99010.50;5037367;28;19921;-48
2022/10/25 10:53:31;;;;;;;;;;;;;;;19.77;100.00;99020.91;5041041;28;19927;-46
2022/10/25 10:55:57;;;;;;;;;;;;;;;20.18;100.00;99018.94;5041557;28;20375;-48
2022/10/25 10:58:42;;;;;;;;;;;;;;;19.69;100.00;99019.81;5042498;28;19917;-46
2022/10/25 11:01:11;;;;;;;;;;;;;;;20.02;100.00;99017.41;5042124;28;19925;-46
2022/10/25 11:03:39;;;;;;;;;;;;;;;20.11;100.00;99017.72;5040777;28;19920;-46
2022/10/25 11:06:25;;;;;;;;;;;;;;;20.13;100.00;99021.06;5042924;28;19917;-47
2022/10/25 11:09:02;;;;;;;;;;;;;;;19.89;100.00;99024.47;5042752;28;19967;-47
2022/10/25 11:11:28;;;;;;;;;;;;;;;19.92;100.00;99019.03;5042132;28;19928;-46
2022/10/25 11:13:56;;;;;;;;;;;;;;;19.64;100.00;99020.91;5040886;28;19920;-46
2022/10/25 11:16:25;;;;;;;;;;;;;;;19.88;100.00;99022.78;5043174;28;19974;-46
2022/10/25 11:18:57;;;;;;;;;;;;;;;19.77;100.00;99023.53;5041494;28;20000;-46
2022/10/25 11:21:41;;;;;;;;;;;;;;;20.65;100.00;99017.31;5041458;28;19924;-47
2022/10/25 11:24:09;;;;;;;;;;;;;;;20.32;100.00;99016.19;5041732;28;19943;-46
2022/10/25 11:26:40;;;;;;;;;;;;;;;20.05;100.00;99019.81;5023966;28;19916;-46
2022/10/25 11:29:14;;;;;;;;;;;;;;;19.98;100.00;99010.75;5040674;28;19963;-46
2022/10/25 11:31:42;;;;;;;;;;;;;;;20.66;100.00;99021.59;5042239;28;19955;-46
2022/10/25 11:34:11;;;;;;;;;;;;;;;20.58;100.00;99026.59;5040732;28;20463;-45
2022/10/25 11:36:40;;;;;;;;;;;;;;;20.75;100.00;99015.69;5044330;28;19967;-45
2022/10/25 11:39:10;;;;;;;;;;;;;;;20.45;100.00;99016.97;5039249;28;19945;-46
2022/10/25 11:41:35;;;;;;;;;;;;;;;21.20;100.00;99010.59;5041971;28;19921;-45
2022/10/25 11:44:05;;;;;;;;;;;;;;;21.13;100.00;99014.63;5041428;28;19947;-46
2022/10/25 11:46:36;;;;;;;;;;;;;;;21.34;100.00;99013.94;5039239;28;19920;-45
2022/10/25 11:49:07;;;;;;;;;;;;;;;21.36;100.00;99001.56;5040433;28;19974;-45
2022/10/25 11:51:47;;;;;;;;;;;;;;;21.10;100.00;99004.38;5041655;28;19963;-45
2022/10/25 11:54:16;;;;;;;;;;;;;;;21.35;100.00;99005.13;5041096;28;20407;-45
2022/10/25 11:56:59;;;;;;;;;;;;;;;20.79;100.00;99014.53;5056951;28;19959;-45
2022/10/25 11:59:31;;;;;;;;;;;;;;;20.35;100.00;99026.44;5041073;28;19928;-46
2022/10/25 12:01:59;;;;;;;;;;;;;;;21.03;100.00;99011.88;5040667;28;19966;-45
2022/10/25 12:04:40;;;;;;;;;;;;;;;21.04;100.00;99010.09;5040707;28;19936;-46
2022/10/25 12:07:05;;;;;;;;;;;;;;;20.50;100.00;99013.19;5039310;28;19929;-45
2022/10/25 12:09:49;;;;;;;;;;;;;;;20.47;100.00;99009.84;5040338;28;19966;-45
2022/10/25 12:12:18;;;;;;;;;;;;;;;21.06;100.00;99006.41;5039341;28;20036;-45
2022/10/25 12:14:45;;;;;;;;;;;;;;;20.70;100.00;99004.72;5039894;28;20499;-45
2022/10/25 12:17:16;;;;;;;;;;;;;;;21.42;100.00;99001.13;5038016;28;20335;-45
2022/10/25 12:19:42;;;;;;;;;;;;;;;20.84;100.00;99004.53;5037641;28;20286;-45
2022/10/25 12:22:11;;;;;;;;;;;;;;;21.43;100.00;99002.78;5038974;28;19924;-45
2022/10/25 12:24:38;;;;;;;;;;;;;;;20.64;100.00;99010.41;5038652;28;19913;-45
2022/10/25 12:27:03;;;;;;;;;;;;;;;20.25;100.00;99009.72;5038367;28;19917;-45
2022/10/25 12:29:32;;;;;;;;;;;;;;;19.36;100.00;99018.50;5037798;28;20700;-46
2022/10/25 12:31:57;;;;;;;;;;;;;;;19.84;100.00;99021.31;5040419;28;20449;-45
2022/10/25 12:34:29;;;;;;;;;;;;;;;20.89;100.00;99004.19;5039178;28;19980;-45
2022/10/25 12:36:54;;;;;;;;;;;;;;;20.59;100.00;99004.69;5040025;28;19921;-45